Time;durP1;ratioP1;P1;durP2;ratioP2;P2;SDS_P1;SDS_P2;PMS_P1;PMS_P2;Temp;Humidity;BMP_temperature;BMP_pressure;BME280_temperature;BME280_humidity;BME280_pressure;Samples;Min_cycle;Max_cycle;Signal;HPM_P1;HPM_P2
2022/04/23 00:01:42;;;;;;;0.22;0.22;;;13.50;99.90;;;;;;4995223;28;20104;-70
2022/04/23 00:04:09;;;;;;;0.30;0.30;;;13.60;99.90;;;;;;5003970;28;20050;-70
2022/04/23 00:06:35;;;;;;;4.95;2.35;;;13.80;99.90;;;;;;5001222;28;20089;-70
2022/04/23 00:09:00;;;;;;;0.08;0.08;;;13.70;99.90;;;;;;5005984;28;20349;-70
2022/04/23 00:11:26;;;;;;;5.45;0.35;;;13.60;99.90;;;;;;5003150;28;20046;-70
2022/04/23 00:13:51;;;;;;;0.00;0.00;;;13.70;99.90;;;;;;5004311;28;20133;-70
2022/04/23 00:16:17;;;;;;;0.38;0.38;;;13.70;99.90;;;;;;5020838;28;20042;-70
2022/04/23 00:18:43;;;;;;;0.00;0.00;;;13.70;99.90;;;;;;5008533;28;20100;-70
2022/04/23 00:21:09;;;;;;;0.80;0.80;;;13.50;99.90;;;;;;5003295;28;20089;-70
2022/04/23 00:23:34;;;;;;;0.77;0.77;;;13.50;99.90;;;;;;5007678;28;20379;-69
2022/04/23 00:26:01;;;;;;;0.38;0.38;;;13.40;99.90;;;;;;5008522;28;20125;-69
2022/04/23 00:28:26;;;;;;;0.30;0.30;;;13.40;99.90;;;;;;5003043;28;20046;-70
2022/04/23 00:30:52;;;;;;;1.05;0.55;;;13.40;99.90;;;;;;5004350;28;20092;-69
2022/04/23 00:33:19;;;;;;;0.43;0.40;;;13.30;99.90;;;;;;5009993;28;20927;-69
2022/04/23 00:35:45;;;;;;;0.60;0.60;;;13.20;99.90;;;;;;5003984;28;20077;-69
2022/04/23 00:38:10;;;;;;;0.20;0.20;;;13.20;99.90;;;;;;5007750;28;20053;-70
2022/04/23 00:40:39;;;;;;;0.08;0.08;;;13.20;99.90;;;;;;5006908;28;20053;-69
2022/04/23 00:43:10;;;;;;;0.10;0.10;;;13.10;99.90;;;;;;5008044;28;20052;-70
2022/04/23 00:45:36;;;;;;;0.38;0.38;;;13.30;99.90;;;;;;5007880;28;20049;-69
2022/04/23 00:48:02;;;;;;;0.43;0.43;;;13.30;99.90;;;;;;5010086;28;20132;-69
2022/04/23 00:50:28;;;;;;;5.78;1.65;;;13.40;99.90;;;;;;5009580;28;20477;-70
2022/04/23 00:53:02;;;;;;;0.73;0.50;;;13.30;99.90;;;;;;5009170;28;20050;-69
2022/04/23 00:55:31;;;;;;;2.08;1.48;;;13.30;99.90;;;;;;5010505;28;20058;-69
2022/04/23 00:57:58;;;;;;;1.65;1.55;;;13.10;99.90;;;;;;4995927;28;20042;-70
2022/04/23 01:00:24;;;;;;;0.60;0.52;;;13.30;99.90;;;;;;5007831;28;20178;-69
2022/04/23 01:02:53;;;;;;;0.17;0.17;;;13.30;99.90;;;;;;5007315;28;20405;-70
2022/04/23 01:05:20;;;;;;;1.13;0.50;;;13.10;99.90;;;;;;5008333;28;20043;-70
2022/04/23 01:07:45;;;;;;;0.10;0.10;;;13.00;99.90;;;;;;5009690;28;20050;-70
2022/04/23 01:10:12;;;;;;;0.30;0.30;;;13.20;99.90;;;;;;5011080;28;20383;-70
2022/04/23 01:12:38;;;;;;;0.20;0.20;;;13.00;99.90;;;;;;5005299;28;20445;-70
2022/04/23 01:15:05;;;;;;;0.32;0.32;;;13.00;99.90;;;;;;5000305;28;20129;-69
2022/04/23 01:17:31;;;;;;;1.15;1.08;;;13.00;99.90;;;;;;4993529;28;20061;-69
2022/04/23 01:19:57;;;;;;;1.10;0.65;;;13.00;99.90;;;;;;5008421;28;20096;-69
2022/04/23 01:22:26;;;;;;;0.85;0.85;;;13.00;99.90;;;;;;5005235;28;21041;-69
2022/04/23 01:24:51;;;;;;;0.03;0.03;;;13.10;99.90;;;;;;5008485;28;20183;-69
2022/04/23 01:27:18;;;;;;;0.50;0.45;;;12.90;99.90;;;;;;5010663;28;20128;-69
2022/04/23 01:29:44;;;;;;;0.40;0.40;;;12.90;99.90;;;;;;5009819;28;20056;-69
2022/04/23 01:32:10;;;;;;;0.10;0.10;;;13.00;99.90;;;;;;5010572;28;20497;-68
2022/04/23 01:34:36;;;;;;;1.50;0.88;;;12.70;99.90;;;;;;5022690;28;20053;-69
2022/04/23 01:37:01;;;;;;;0.13;0.13;;;12.70;99.90;;;;;;5011307;28;20042;-69
2022/04/23 01:39:27;;;;;;;0.10;0.10;;;12.70;99.90;;;;;;4992957;28;20046;-69
2022/04/23 01:41:53;;;;;;;4.78;1.88;;;12.80;99.90;;;;;;5010833;28;20057;-69
2022/04/23 01:44:18;;;;;;;0.20;0.20;;;12.70;99.90;;;;;;5008818;28;20057;-69
2022/04/23 01:46:44;;;;;;;0.17;0.17;;;12.70;99.90;;;;;;5006954;28;20038;-69
2022/04/23 01:49:09;;;;;;;0.20;0.20;;;12.70;99.90;;;;;;5012000;28;20088;-69
2022/04/23 01:51:35;;;;;;;0.30;0.30;;;12.90;99.90;;;;;;5009304;28;20486;-69
2022/04/23 01:54:00;;;;;;;0.10;0.10;;;12.60;99.90;;;;;;5007918;28;20405;-69
2022/04/23 01:56:26;;;;;;;0.30;0.30;;;12.60;99.90;;;;;;5008189;28;20046;-69
2022/04/23 01:58:51;;;;;;;0.10;0.10;;;12.60;99.90;;;;;;4996102;28;20052;-69
2022/04/23 02:01:17;;;;;;;0.20;0.20;;;12.50;99.90;;;;;;5003131;28;20042;-69
2022/04/23 02:03:43;;;;;;;0.13;0.13;;;12.40;99.90;;;;;;5009773;28;20482;-69
2022/04/23 02:06:09;;;;;;;0.17;0.17;;;12.40;99.90;;;;;;5000258;28;20041;-69
2022/04/23 02:08:34;;;;;;;0.22;0.22;;;12.40;99.90;;;;;;5005514;28;20043;-69
2022/04/23 02:11:00;;;;;;;1.02;0.65;;;12.40;99.90;;;;;;5007697;28;20096;-68
2022/04/23 02:13:27;;;;;;;0.80;0.80;;;12.40;99.90;;;;;;5010627;28;20038;-69
2022/04/23 02:15:52;;;;;;;1.02;1.02;;;12.40;99.90;;;;;;4996729;28;20050;-69
2022/04/23 02:18:18;;;;;;;0.90;0.70;;;12.50;99.90;;;;;;5011026;28;20855;-68
2022/04/23 02:20:44;;;;;;;1.55;0.68;;;12.40;99.90;;;;;;5010608;28;20096;-68
2022/04/23 02:23:10;;;;;;;0.75;0.75;;;12.40;99.90;;;;;;5000639;28;20047;-69
2022/04/23 02:25:36;;;;;;;0.57;0.57;;;12.40;99.90;;;;;;5007820;28;20053;-69
2022/04/23 02:28:03;;;;;;;0.10;0.10;;;12.30;99.90;;;;;;5010281;28;20060;-68
2022/04/23 02:30:29;;;;;;;0.50;0.50;;;12.40;99.90;;;;;;5006014;28;20849;-68
2022/04/23 02:32:55;;;;;;;0.05;0.05;;;12.40;99.90;;;;;;4998646;28;20053;-69
2022/04/23 02:35:21;;;;;;;1.20;1.15;;;12.30;99.90;;;;;;4995358;28;20046;-68
2022/04/23 02:37:48;;;;;;;0.30;0.30;;;12.40;99.90;;;;;;5011619;28;20038;-68
2022/04/23 02:40:15;;;;;;;0.30;0.30;;;12.30;99.90;;;;;;5008010;28;20053;-68
2022/04/23 02:42:42;;;;;;;0.50;0.50;;;12.30;99.90;;;;;;5008619;28;20046;-68
2022/04/23 02:45:09;;;;;;;1.08;0.77;;;12.20;99.90;;;;;;5009370;28;20390;-68
2022/04/23 02:47:52;;;;;;;0.40;0.40;;;12.20;99.90;;;;;;5011359;28;20100;-68
2022/04/23 02:50:29;;;;;;;0.20;0.20;;;12.40;99.90;;;;;;5005636;28;20042;-68
2022/04/23 02:52:57;;;;;;;1.38;0.70;;;12.20;99.90;;;;;;5003851;28;20127;-68
2022/04/23 02:55:24;;;;;;;0.20;0.20;;;12.10;99.90;;;;;;5002373;28;20065;-68
2022/04/23 02:57:50;;;;;;;0.57;0.57;;;12.30;99.90;;;;;;5008082;28;20061;-68
2022/04/23 03:00:16;;;;;;;0.10;0.10;;;12.10;99.90;;;;;;5008505;28;20049;-68
2022/04/23 03:02:42;;;;;;;0.80;0.80;;;12.10;99.90;;;;;;5003099;28;20672;-69
2022/04/23 03:05:11;;;;;;;0.45;0.45;;;12.10;99.90;;;;;;4997336;28;20157;-68
2022/04/23 03:07:37;;;;;;;0.10;0.10;;;11.90;99.90;;;;;;4995615;28;20056;-69
2022/04/23 03:10:07;;;;;;;0.08;0.08;;;12.10;99.90;;;;;;5007672;28;20034;-68
2022/04/23 03:12:33;;;;;;;0.43;0.43;;;12.00;99.90;;;;;;5005416;28;20564;-68
2022/04/23 03:14:58;;;;;;;0.15;0.15;;;12.00;99.90;;;;;;5007238;28;20053;-68
2022/04/23 03:17:24;;;;;;;0.25;0.25;;;11.90;99.90;;;;;;5001535;28;20045;-68
2022/04/23 03:19:49;;;;;;;0.32;0.32;;;11.80;99.90;;;;;;5009039;28;20045;-69
2022/04/23 03:22:16;;;;;;;1.75;1.38;;;11.80;99.90;;;;;;5009325;28;20115;-68
2022/04/23 03:24:42;;;;;;;0.88;0.77;;;11.90;99.90;;;;;;5008701;28;20084;-68
2022/04/23 03:27:07;;;;;;;0.75;0.75;;;11.90;99.90;;;;;;4996286;28;20073;-68
2022/04/23 03:29:33;;;;;;;0.30;0.30;;;11.90;99.90;;;;;;4996414;28;20092;-68
2022/04/23 03:31:59;;;;;;;0.20;0.20;;;11.80;99.90;;;;;;5009012;28;20056;-68
2022/04/23 03:34:25;;;;;;;27.10;1.52;;;11.90;99.90;;;;;;5007839;28;20042;-68
2022/04/23 03:36:50;;;;;;;0.40;0.22;;;11.90;99.90;;;;;;5010477;28;20520;-68
2022/04/23 03:39:16;;;;;;;1.38;0.82;;;12.00;99.90;;;;;;5008265;28;20432;-68
2022/04/23 03:41:42;;;;;;;0.57;0.57;;;12.00;99.90;;;;;;5006262;28;20505;-68
2022/04/23 03:44:07;;;;;;;0.65;0.65;;;12.00;99.90;;;;;;5007668;28;20494;-68
2022/04/23 03:46:33;;;;;;;0.32;0.32;;;12.00;99.90;;;;;;5004959;28;20034;-68
2022/04/23 03:48:59;;;;;;;1.60;1.50;;;11.90;99.90;;;;;;5008381;28;20084;-68
2022/04/23 03:51:24;;;;;;;0.20;0.20;;;11.90;99.90;;;;;;5006769;28;20039;-68
2022/04/23 03:53:50;;;;;;;0.35;0.35;;;11.90;99.90;;;;;;5006149;28;20046;-68
2022/04/23 03:56:15;;;;;;;0.32;0.32;;;11.80;99.90;;;;;;5005769;28;20103;-68
2022/04/23 03:58:41;;;;;;;0.40;0.40;;;11.90;99.90;;;;;;5008883;28;20113;-68
2022/04/23 04:01:07;;;;;;;0.28;0.28;;;11.90;99.90;;;;;;5007711;28;20095;-68
2022/04/23 04:03:32;;;;;;;0.60;0.60;;;11.80;99.90;;;;;;5007281;28;20037;-68
2022/04/23 04:05:59;;;;;;;0.68;0.68;;;11.70;99.90;;;;;;5003727;28;20057;-68
2022/04/23 04:08:25;;;;;;;0.43;0.43;;;11.60;99.90;;;;;;5008850;28;20049;-68
2022/04/23 04:10:50;;;;;;;1.10;0.63;;;11.80;99.90;;;;;;5016668;28;20410;-68
2022/04/23 04:13:16;;;;;;;0.47;0.47;;;11.70;99.90;;;;;;5010377;28;20045;-68
2022/04/23 04:15:45;;;;;;;0.10;0.10;;;11.70;99.90;;;;;;4991913;28;20081;-68
2022/04/23 04:18:11;;;;;;;3.20;1.27;;;11.70;99.90;;;;;;5008411;28;20050;-68
2022/04/23 04:20:39;;;;;;;0.32;0.32;;;11.70;99.90;;;;;;5004745;28;20610;-68
2022/04/23 04:23:08;;;;;;;0.20;0.20;;;11.60;99.90;;;;;;5000751;28;20467;-68
2022/04/23 04:25:34;;;;;;;0.63;0.63;;;11.60;99.90;;;;;;5007745;28;20042;-68
2022/04/23 04:28:01;;;;;;;0.10;0.10;;;11.60;99.90;;;;;;5005607;28;20180;-68
2022/04/23 04:30:27;;;;;;;0.80;0.63;;;11.60;99.90;;;;;;5009246;28;20045;-68
2022/04/23 04:32:52;;;;;;;1.35;0.90;;;11.60;99.90;;;;;;5012639;28;20099;-68
2022/04/23 04:35:18;;;;;;;2.80;0.98;;;11.50;99.90;;;;;;5012762;28;20115;-68
2022/04/23 04:37:44;;;;;;;4.00;2.15;;;11.50;99.90;;;;;;5009083;28;20073;-68
2022/04/23 04:40:10;;;;;;;0.40;0.40;;;11.60;99.90;;;;;;5010226;28;20080;-68
2022/04/23 04:42:36;;;;;;;0.63;0.63;;;11.60;99.90;;;;;;5015355;28;20057;-68
2022/04/23 04:45:03;;;;;;;0.22;0.22;;;11.60;99.90;;;;;;5013006;28;20034;-68
2022/04/23 04:47:28;;;;;;;0.55;0.55;;;11.70;99.90;;;;;;5012183;28;20511;-68
2022/04/23 04:49:54;;;;;;;0.38;0.38;;;11.50;99.90;;;;;;5008160;28;20038;-68
2022/04/23 04:52:19;;;;;;;0.20;0.20;;;11.60;99.90;;;;;;5008051;28;20486;-68
2022/04/23 04:54:45;;;;;;;0.63;0.47;;;11.60;99.90;;;;;;5005266;28;20054;-68
2022/04/23 04:57:11;;;;;;;0.20;0.20;;;11.60;99.90;;;;;;5011264;28;20405;-68
2022/04/23 04:59:37;;;;;;;0.10;0.10;;;11.60;99.90;;;;;;5002096;28;20417;-68
2022/04/23 05:02:03;;;;;;;0.20;0.20;;;11.60;99.90;;;;;;5011733;28;20050;-68
2022/04/23 05:04:29;;;;;;;0.65;0.65;;;11.70;99.90;;;;;;5003309;28;20057;-68
2022/04/23 05:06:55;;;;;;;6.32;0.75;;;11.80;99.90;;;;;;5009048;28;20042;-68
2022/04/23 05:09:21;;;;;;;0.52;0.52;;;11.60;99.90;;;;;;5002805;28;20112;-69
2022/04/23 05:11:46;;;;;;;0.17;0.17;;;11.70;99.90;;;;;;5000264;28;20406;-68
2022/04/23 05:14:12;;;;;;;0.57;0.57;;;11.50;99.90;;;;;;5006482;28;20054;-68
2022/04/23 05:16:37;;;;;;;0.57;0.57;;;11.60;99.90;;;;;;4999688;28;20053;-68
2022/04/23 05:19:03;;;;;;;1.38;1.27;;;11.60;99.90;;;;;;5008905;28;20143;-68
2022/04/23 05:21:29;;;;;;;1.33;1.00;;;11.60;99.90;;;;;;5010006;28;20049;-68
2022/04/23 05:23:54;;;;;;;0.30;0.30;;;11.70;99.90;;;;;;5003230;28;20497;-68
2022/04/23 05:26:20;;;;;;;3.03;0.75;;;11.70;99.90;;;;;;4997291;28;20034;-68
2022/04/23 05:28:45;;;;;;;0.10;0.10;;;11.70;99.90;;;;;;4996764;28;20076;-68
2022/04/23 05:31:11;;;;;;;0.30;0.30;;;11.60;99.90;;;;;;5004485;28;20030;-68
2022/04/23 05:33:38;;;;;;;0.10;0.10;;;11.60;99.90;;;;;;5011570;28;20042;-68
2022/04/23 05:36:06;;;;;;;10.02;0.75;;;11.70;99.90;;;;;;5000964;28;20050;-68
2022/04/23 05:38:32;;;;;;;0.43;0.43;;;11.70;99.90;;;;;;5005335;28;20038;-68
2022/04/23 05:40:57;;;;;;;0.13;0.13;;;11.70;99.90;;;;;;5012082;28;20034;-68
2022/04/23 05:43:23;;;;;;;0.47;0.47;;;11.80;99.90;;;;;;5011355;28;20512;-68
2022/04/23 05:45:50;;;;;;;0.20;0.20;;;11.70;99.90;;;;;;5003465;28;20413;-68
2022/04/23 05:48:16;;;;;;;1.27;0.65;;;11.70;99.90;;;;;;5012655;28;20053;-68
2022/04/23 05:50:41;;;;;;;0.40;0.40;;;11.70;99.90;;;;;;5003777;28;20042;-68
2022/04/23 05:53:07;;;;;;;0.43;0.43;;;11.80;99.90;;;;;;5004654;28;20056;-68
2022/04/23 05:55:32;;;;;;;12.25;6.13;;;11.90;99.90;;;;;;4998923;28;20113;-68
2022/04/23 05:57:58;;;;;;;0.73;0.73;;;11.90;99.90;;;;;;5008384;28;20041;-68
2022/04/23 06:00:23;;;;;;;0.30;0.30;;;11.90;99.90;;;;;;5004465;28;20042;-67
2022/04/23 06:02:49;;;;;;;0.10;0.10;;;11.80;99.90;;;;;;4995082;28;20141;-68
2022/04/23 06:05:14;;;;;;;0.20;0.20;;;12.00;99.90;;;;;;5010700;28;20034;-68
2022/04/23 06:07:40;;;;;;;0.20;0.20;;;12.10;99.90;;;;;;5005378;28;20123;-68
2022/04/23 06:10:06;;;;;;;0.82;0.82;;;12.00;99.90;;;;;;5003912;28;20383;-68
2022/04/23 06:12:32;;;;;;;0.40;0.40;;;11.90;99.90;;;;;;5002388;28;20121;-68
2022/04/23 06:14:58;;;;;;;2.08;1.85;;;12.00;99.90;;;;;;5001329;28;20153;-69
2022/04/23 06:17:25;;;;;;;0.38;0.38;;;12.00;99.90;;;;;;5005185;28;20129;-68
2022/04/23 06:19:52;;;;;;;0.10;0.10;;;12.10;99.90;;;;;;5005486;28;20042;-69
2022/04/23 06:22:18;;;;;;;0.00;0.00;;;12.00;99.90;;;;;;5006757;28;20050;-70
2022/04/23 06:24:44;;;;;;;0.57;0.55;;;12.10;99.90;;;;;;5010420;28;20046;-69
2022/04/23 06:27:09;;;;;;;0.38;0.38;;;12.10;99.90;;;;;;5005583;28;20045;-69
2022/04/23 06:29:36;;;;;;;0.35;0.35;;;12.10;99.90;;;;;;4998956;28;20038;-69
2022/04/23 06:32:02;;;;;;;4.90;0.45;;;12.10;99.90;;;;;;5009122;28;20517;-69
2022/04/23 06:34:28;;;;;;;0.20;0.20;;;12.10;99.90;;;;;;5010825;28;20085;-69
2022/04/23 06:36:53;;;;;;;0.13;0.13;;;12.10;99.90;;;;;;5011704;28;20121;-69
2022/04/23 06:39:19;;;;;;;0.20;0.20;;;12.30;99.90;;;;;;5011023;28;20069;-69
2022/04/23 06:41:44;;;;;;;0.88;0.88;;;12.30;99.90;;;;;;5006875;28;20489;-69
2022/04/23 06:44:10;;;;;;;0.05;0.05;;;12.40;99.90;;;;;;5011423;28;20045;-69
2022/04/23 06:46:36;;;;;;;0.75;0.70;;;12.40;99.90;;;;;;5007707;28;20620;-69
2022/04/23 06:49:05;;;;;;;0.10;0.10;;;12.50;99.90;;;;;;5007582;28;20048;-68
2022/04/23 06:51:31;;;;;;;0.93;0.85;;;12.40;99.90;;;;;;5004820;28;20034;-68
2022/04/23 06:53:57;;;;;;;2.35;0.63;;;12.40;99.90;;;;;;5008129;28;20096;-68
2022/04/23 06:56:22;;;;;;;0.22;0.22;;;12.40;99.90;;;;;;5007147;28;20456;-69
2022/04/23 06:58:48;;;;;;;0.35;0.35;;;12.60;99.90;;;;;;5010105;28;20042;-69
2022/04/23 07:01:15;;;;;;;0.20;0.20;;;12.60;99.90;;;;;;5010833;28;20088;-69
2022/04/23 07:03:40;;;;;;;2.80;1.55;;;12.70;99.90;;;;;;5007173;28;20446;-68
2022/04/23 07:06:06;;;;;;;0.77;0.77;;;12.70;99.90;;;;;;5008691;28;20124;-69
2022/04/23 07:08:32;;;;;;;0.75;0.75;;;12.70;99.90;;;;;;5009804;28;20037;-69
2022/04/23 07:10:58;;;;;;;0.40;0.20;;;12.90;99.90;;;;;;5008760;28;20555;-69
2022/04/23 07:13:23;;;;;;;0.15;0.15;;;12.90;99.90;;;;;;5009439;28;20089;-69
2022/04/23 07:15:49;;;;;;;0.75;0.75;;;12.90;99.90;;;;;;5006887;28;20104;-69
2022/04/23 07:18:14;;;;;;;1.92;1.45;;;12.90;99.90;;;;;;5006744;28;20088;-69
2022/04/23 07:20:40;;;;;;;0.20;0.20;;;13.10;99.90;;;;;;5009096;28;20568;-69
2022/04/23 07:25:50;;;;;;;0.45;0.45;;;13.20;99.90;;;;;;5001412;28;20056;-69
2022/04/23 07:28:15;;;;;;;0.80;0.80;;;13.20;99.90;;;;;;5023398;28;20050;-68
2022/04/23 07:30:42;;;;;;;0.45;0.45;;;13.30;99.90;;;;;;5010714;28;20401;-69
2022/04/23 07:33:08;;;;;;;0.20;0.20;;;13.30;99.90;;;;;;5006397;28;20052;-69
2022/04/23 07:38:20;;;;;;;0.08;0.08;;;13.40;99.90;;;;;;5009950;28;20057;-69
2022/04/23 07:40:50;;;;;;;0.73;0.73;;;13.50;99.90;;;;;;5010257;28;20084;-69
2022/04/23 07:43:16;;;;;;;1.00;0.47;;;13.60;99.90;;;;;;5009617;28;20052;-68
2022/04/23 07:45:44;;;;;;;0.40;0.40;;;13.60;99.90;;;;;;5009236;28;20060;-69
2022/04/23 07:48:11;;;;;;;0.22;0.22;;;13.70;99.90;;;;;;5009300;28;20045;-69
2022/04/23 07:50:38;;;;;;;2.08;0.90;;;13.80;99.90;;;;;;5010067;28;20053;-69
2022/04/23 07:53:04;;;;;;;4.05;2.05;;;13.80;99.90;;;;;;5008649;28;20049;-69
2022/04/23 07:55:36;;;;;;;0.52;0.52;;;13.80;99.40;;;;;;5006404;28;20520;-69
2022/04/23 07:58:04;;;;;;;0.65;0.65;;;13.80;99.70;;;;;;5009244;28;20077;-69
2022/04/23 08:00:31;;;;;;;0.60;0.60;;;13.90;99.40;;;;;;5005238;28;20046;-70
2022/04/23 08:02:57;;;;;;;6.70;1.40;;;13.90;98.50;;;;;;4994711;28;20045;-69
2022/04/23 08:05:23;;;;;;;0.32;0.32;;;14.10;98.90;;;;;;5008495;28;20042;-69
2022/04/23 08:07:49;;;;;;;0.40;0.40;;;14.10;98.10;;;;;;5009640;28;20386;-69
2022/04/23 08:10:14;;;;;;;0.93;0.93;;;14.20;97.90;;;;;;5042346;28;20379;-69
2022/04/23 08:12:40;;;;;;;1.10;1.00;;;14.10;98.40;;;;;;5007850;28;20046;-69
2022/04/23 08:15:06;;;;;;;0.95;0.95;;;14.20;98.00;;;;;;5005700;28;20123;-69
2022/04/23 08:17:33;;;;;;;0.50;0.50;;;14.40;97.90;;;;;;5008142;28;20041;-69
2022/04/23 08:19:59;;;;;;;0.50;0.50;;;14.40;97.80;;;;;;5009361;28;20053;-69
2022/04/23 08:22:25;;;;;;;0.00;0.00;;;14.50;97.20;;;;;;5004981;28;20046;-69
2022/04/23 08:24:50;;;;;;;0.65;0.65;;;14.60;97.40;;;;;;5006934;28;20042;-69
2022/04/23 08:27:16;;;;;;;0.10;0.10;;;14.70;96.80;;;;;;5024965;28;20132;-69
2022/04/23 08:32:25;;;;;;;0.22;0.22;;;14.70;96.00;;;;;;5008870;28;20445;-69
2022/04/23 08:34:51;;;;;;;0.43;0.43;;;14.70;95.30;;;;;;5009165;28;20050;-69
2022/04/23 08:37:17;;;;;;;0.10;0.10;;;14.70;95.80;;;;;;5008701;28;20034;-69
2022/04/23 08:39:43;;;;;;;0.63;0.63;;;14.90;96.00;;;;;;5002714;28;20050;-69
2022/04/23 08:42:09;;;;;;;0.80;0.80;;;14.90;94.50;;;;;;5009473;28;20125;-69
2022/04/23 08:44:38;;;;;;;0.32;0.32;;;14.90;94.90;;;;;;5009870;28;20124;-69
2022/04/23 08:47:05;;;;;;;0.13;0.13;;;15.00;95.10;;;;;;5008066;28;20046;-69
2022/04/23 08:49:35;;;;;;;1.25;0.40;;;15.20;94.60;;;;;;5008104;28;20068;-68
2022/04/23 08:52:33;;;;;;;2.92;0.73;;;15.30;95.30;;;;;;5009239;28;20046;-69
2022/04/23 08:55:04;;;;;;;0.55;0.55;;;15.80;94.00;;;;;;5008308;28;20054;-70
2022/04/23 08:57:30;;;;;;;0.35;0.35;;;16.40;93.00;;;;;;5006915;28;20053;-69
2022/04/23 08:59:56;;;;;;;0.80;0.80;;;17.00;92.40;;;;;;5009298;28;20509;-69
2022/04/23 09:02:24;;;;;;;0.52;0.43;;;17.10;90.90;;;;;;5008017;28;20129;-70
2022/04/23 09:04:50;;;;;;;0.43;0.43;;;17.20;90.80;;;;;;5009370;28;20065;-70
2022/04/23 09:07:28;;;;;;;0.10;0.10;;;17.50;90.60;;;;;;5013175;28;20689;-69
2022/04/23 09:09:55;;;;;;;0.38;0.38;;;18.20;90.80;;;;;;5013212;28;20133;-69
2022/04/23 09:12:25;;;;;;;0.10;0.10;;;18.50;90.20;;;;;;5011572;28;20046;-69
2022/04/23 09:14:52;;;;;;;0.35;0.35;;;18.80;90.30;;;;;;4993487;28;20095;-69
2022/04/23 09:25:42;;;;;;;0.30;0.30;;;18.80;88.40;;;;;;5011773;28;20054;-69
2022/04/23 09:28:26;;;;;;;0.57;0.57;;;19.00;88.00;;;;;;4997921;28;20049;-69
2022/04/23 09:30:54;;;;;;;0.17;0.17;;;19.30;87.80;;;;;;5011726;28;20053;-69
2022/04/23 09:33:30;;;;;;;0.15;0.15;;;19.40;88.90;;;;;;5012717;28;20405;-69
2022/04/23 09:36:02;;;;;;;1.05;0.60;;;19.30;87.30;;;;;;5011711;28;20037;-69
2022/04/23 09:38:29;;;;;;;0.30;0.30;;;19.70;86.80;;;;;;5005825;28;20058;-69
2022/04/23 09:40:59;;;;;;;0.10;0.10;;;19.80;86.40;;;;;;5012275;28;20417;-68
2022/04/23 09:43:30;;;;;;;0.47;0.47;;;20.20;88.40;;;;;;5043357;28;20406;-69
2022/04/23 09:46:03;;;;;;;0.38;0.35;;;20.20;84.70;;;;;;5010093;28;20042;-68
2022/04/23 09:48:30;;;;;;;0.35;0.35;;;19.80;85.60;;;;;;5010879;28;20046;-68
2022/04/23 09:50:56;;;;;;;0.43;0.43;;;20.10;85.50;;;;;;5000940;28;20497;-68
2022/04/23 09:53:27;;;;;;;0.35;0.35;;;20.20;85.00;;;;;;5008933;28;20080;-68
2022/04/23 09:55:54;;;;;;;0.25;0.25;;;20.20;87.10;;;;;;5011125;28;20620;-67
2022/04/23 09:58:19;;;;;;;0.70;0.70;;;20.40;85.10;;;;;;5011143;28;20050;-69
2022/04/23 10:00:47;;;;;;;0.43;0.20;;;20.20;84.30;;;;;;5031725;28;20095;-69
2022/04/23 10:03:13;;;;;;;5.75;1.05;;;20.30;85.00;;;;;;5017110;28;20049;-68
2022/04/23 10:05:42;;;;;;;2.20;0.77;;;20.40;86.20;;;;;;5008796;28;20157;-68
2022/04/23 10:08:13;;;;;;;0.40;0.40;;;20.60;83.70;;;;;;5022897;28;20038;-69
2022/04/23 10:11:23;;;;;;;0.20;0.15;;;20.60;84.00;;;;;;5010826;28;20057;-69
2022/04/23 10:13:55;;;;;;;0.60;0.60;;;20.50;85.60;;;;;;4956494;28;20082;-68
2022/04/23 10:16:21;;;;;;;0.52;0.50;;;20.70;85.50;;;;;;5002658;28;20116;-69
2022/04/23 10:18:47;;;;;;;2.67;1.08;;;20.30;84.80;;;;;;5006514;28;20133;-69
2022/04/23 10:21:21;;;;;;;0.82;0.40;;;20.60;85.90;;;;;;5000562;28;20482;-69
2022/04/23 10:24:07;;;;;;;0.25;0.25;;;20.30;84.50;;;;;;5008671;28;20088;-69
2022/04/23 10:26:44;;;;;;;0.77;0.77;;;20.30;84.70;;;;;;5012530;28;20041;-69
2022/04/23 10:29:11;;;;;;;0.20;0.20;;;20.30;85.20;;;;;;5011705;28;20053;-68
2022/04/23 10:31:37;;;;;;;0.60;0.57;;;20.50;85.80;;;;;;5011717;28;20104;-68
2022/04/23 10:34:03;;;;;;;1.58;0.52;;;20.10;85.90;;;;;;5006293;28;20088;-69
2022/04/23 10:36:29;;;;;;;2.70;0.90;;;20.00;85.90;;;;;;5010418;28;20097;-69
2022/04/23 10:39:19;;;;;;;0.20;0.20;;;19.90;84.90;;;;;;5011575;28;20049;-69
2022/04/23 10:41:44;;;;;;;0.40;0.40;;;20.00;87.20;;;;;;5002417;28;20053;-69
2022/04/23 10:44:10;;;;;;;0.50;0.45;;;19.90;85.70;;;;;;5008769;28;20402;-69
2022/04/23 10:46:45;;;;;;;0.15;0.15;;;20.10;86.00;;;;;;5008498;28;20046;-69
2022/04/23 10:49:21;;;;;;;4.90;1.33;;;19.90;86.10;;;;;;5009938;28;20392;-70
2022/04/23 10:51:55;;;;;;;1.55;0.80;;;19.90;85.40;;;;;;5011049;28;20076;-70
2022/04/23 10:54:41;;;;;;;2.63;0.65;;;20.10;84.40;;;;;;5004777;28;20077;-66
2022/04/23 10:57:11;;;;;;;0.70;0.57;;;20.00;86.00;;;;;;5006670;28;20049;-69
2022/04/23 10:59:42;;;;;;;0.20;0.20;;;20.00;85.40;;;;;;5004649;28;20097;-69
2022/04/23 11:02:30;;;;;;;1.45;0.55;;;20.00;86.20;;;;;;5010633;28;20145;-69
2022/04/23 11:13:39;;;;;;;0.80;0.75;;;20.20;82.60;;;;;;5010049;28;20064;-69
2022/04/23 11:16:08;;;;;;;0.65;0.65;;;20.30;83.70;;;;;;5009536;28;20038;-69
2022/04/23 11:18:34;;;;;;;2.35;1.15;;;20.40;82.20;;;;;;5010738;28;20100;-69
2022/04/23 11:21:23;;;;;;;0.00;0.00;;;20.60;82.70;;;;;;5007463;28;20053;-69
2022/04/23 11:23:49;;;;;;;1.15;0.68;;;20.50;81.90;;;;;;5008921;28;20084;-69
2022/04/23 11:26:22;;;;;;;0.80;0.80;;;20.80;80.70;;;;;;5002505;28;20049;-69
2022/04/23 11:28:57;;;;;;;0.80;0.80;;;20.70;82.60;;;;;;4995846;28;20052;-69
2022/04/23 11:31:23;;;;;;;0.32;0.32;;;20.70;80.20;;;;;;5009722;28;20490;-69
2022/04/23 11:34:00;;;;;;;9.85;0.82;;;20.70;81.70;;;;;;5006795;28;20524;-66
2022/04/23 11:36:29;;;;;;;2.65;1.20;;;20.70;80.30;;;;;;4999538;28;20433;-66
2022/04/23 11:38:56;;;;;;;0.10;0.10;;;20.90;82.70;;;;;;4999472;28;20046;-67
2022/04/23 11:41:28;;;;;;;0.03;0.03;;;21.00;81.50;;;;;;5003704;28;20482;-67
2022/04/23 11:43:54;;;;;;;0.90;0.90;;;21.00;79.40;;;;;;5003322;28;20461;-67
2022/04/23 11:46:19;;;;;;;0.15;0.15;;;21.00;78.80;;;;;;5008730;28;20046;-68
2022/04/23 11:48:47;;;;;;;1.88;0.73;;;21.20;80.70;;;;;;5006466;28;20034;-68
2022/04/23 11:51:18;;;;;;;0.20;0.20;;;21.50;78.80;;;;;;5006338;28;20121;-69
2022/04/23 11:53:58;;;;;;;0.05;0.05;;;21.40;81.70;;;;;;5007779;28;20053;-67
2022/04/23 11:56:34;;;;;;;0.00;0.00;;;21.70;78.50;;;;;;5011874;28;20113;-69
2022/04/23 11:59:11;;;;;;;11.57;2.45;;;21.80;79.10;;;;;;5006359;28;20117;-69
2022/04/23 12:01:41;;;;;;;0.35;0.35;;;21.70;80.70;;;;;;5005805;28;20049;-69
2022/04/23 12:04:07;;;;;;;0.45;0.40;;;21.60;76.80;;;;;;5009512;28;20081;-69
2022/04/23 12:06:43;;;;;;;0.65;0.60;;;22.00;79.10;;;;;;5008409;28;20088;-70
2022/04/23 12:09:11;;;;;;;0.30;0.30;;;22.20;78.50;;;;;;5041911;28;20143;-69
2022/04/23 12:11:37;;;;;;;0.57;0.43;;;22.20;76.20;;;;;;5009258;28;20050;-68
2022/04/23 12:14:03;;;;;;;0.00;0.00;;;22.30;78.80;;;;;;5008587;28;20474;-68
2022/04/23 12:16:30;;;;;;;1.58;0.95;;;22.40;77.70;;;;;;5008937;28;20405;-69
2022/04/23 12:19:11;;;;;;;1.17;0.55;;;22.50;74.90;;;;;;5009729;28;20457;-69
2022/04/23 12:21:38;;;;;;;0.50;0.50;;;22.40;75.40;;;;;;5024164;28;20061;-69
2022/04/23 12:24:04;;;;;;;0.57;0.52;;;22.90;77.10;;;;;;5009188;28;20494;-68
2022/04/23 12:26:38;;;;;;;0.43;0.35;;;22.80;73.70;;;;;;5007790;28;20129;-69
2022/04/23 12:43:26;;;;;;;0.95;0.90;;;23.30;73.50;;;;;;5012963;28;20050;-69
2022/04/23 12:46:03;;;;;;;0.17;0.17;;;23.10;71.30;;;;;;5012765;28;20125;-69
2022/04/23 12:48:29;;;;;;;0.43;0.17;;;23.10;74.40;;;;;;5011945;28;20830;-68
2022/04/23 12:51:07;;;;;;;0.00;0.00;;;23.30;73.70;;;;;;5010658;28;20045;-68
2022/04/23 12:53:34;;;;;;;0.50;0.50;;;23.40;74.30;;;;;;5010774;28;20082;-69
2022/04/23 12:56:01;;;;;;;0.63;0.28;;;23.30;73.20;;;;;;5020879;28;20065;-69
2022/04/23 12:58:29;;;;;;;0.70;0.70;;;23.10;72.80;;;;;;5033243;28;20056;-69
2022/04/23 13:00:54;;;;;;;1.73;0.32;;;23.50;73.40;;;;;;5022963;28;20572;-69
2022/04/23 13:03:32;;;;;;;0.75;0.55;;;23.00;72.40;;;;;;5012482;28;20057;-69
2022/04/23 13:05:58;;;;;;;0.20;0.20;;;23.40;72.60;;;;;;5011290;28;20494;-69
2022/04/23 13:13:54;;;;;;;0.52;0.52;;;23.70;73.20;;;;;;5012312;28;20062;-69
2022/04/23 13:16:25;;;;;;;0.30;0.20;;;23.70;72.70;;;;;;5012472;28;20052;-69
2022/04/23 13:18:54;;;;;;;0.00;0.00;;;24.00;74.00;;;;;;5010833;28;20103;-69
2022/04/23 13:21:21;;;;;;;0.30;0.30;;;23.60;72.90;;;;;;5011449;28;20045;-68
2022/04/23 13:23:46;;;;;;;0.00;0.00;;;23.30;72.30;;;;;;5010814;28;20061;-68
2022/04/23 13:26:13;;;;;;;0.00;0.00;;;22.90;71.80;;;;;;5013959;28;20046;-69
2022/04/23 13:28:39;;;;;;;0.20;0.20;;;23.40;72.00;;;;;;5010979;28;20058;-69
2022/04/23 13:31:06;;;;;;;0.10;0.10;;;23.20;71.80;;;;;;5002011;28;20050;-69
2022/04/23 13:33:31;;;;;;;0.05;0.05;;;23.20;72.20;;;;;;5012282;28;20069;-69